Time;durP1;ratioP1;P1;durP2;ratioP2;P2;SDS_P1;SDS_P2;PMS_P1;PMS_P2;Temp;Humidity;BMP_temperature;BMP_pressure;BME280_temperature;BME280_humidity;BME280_pressure;Samples;Min_cycle;Max_cycle;Signal;HPM_P1;HPM_P2
2022/05/31 00:01:28;;;;;;;;;14.75;13.75;;;;;17.58;36.49;100687.09;5096434;27;46497;-70
2022/05/31 00:03:54;;;;;;;;;19.25;12.50;;;;;17.42;36.18;100659.22;5096655;27;45471;-70
2022/05/31 00:06:19;;;;;;;;;13.00;11.75;;;;;17.58;36.07;100687.09;5102724;27;45370;-70
2022/05/31 00:08:45;;;;;;;;;20.75;13.25;;;;;17.59;36.61;100694.31;5104644;27;45382;-70
2022/05/31 00:11:11;;;;;;;;;11.25;11.25;;;;;17.49;36.37;100674.53;5077838;27;46349;-70
2022/05/31 00:13:36;;;;;;;;;13.25;11.25;;;;;17.47;36.18;100673.63;5096189;27;45437;-71
2022/05/31 00:16:02;;;;;;;;;14.00;10.50;;;;;17.59;36.71;100686.22;5096054;27;45385;-71
2022/05/31 00:18:27;;;;;;;;;12.00;12.00;;;;;17.24;36.51;100635.88;5088528;27;45745;-70
2022/05/31 00:20:52;;;;;;;;;18.25;14.25;;;;;17.37;36.38;100661.06;5116996;27;45405;-70
2022/05/31 00:23:20;;;;;;;;;20.25;17.00;;;;;17.49;36.48;100685.34;5117051;27;45452;-70
2022/05/31 00:25:46;;;;;;;;;15.00;13.50;;;;;17.54;36.24;100693.41;5117116;27;45636;-70
2022/05/31 00:28:11;;;;;;;;;15.00;11.50;;;;;17.48;36.11;100686.22;5104612;27;45284;-70
2022/05/31 00:30:37;;;;;;;;;14.50;9.75;;;;;17.37;36.69;100663.75;5099746;27;45899;-70
2022/05/31 00:33:04;;;;;;;;;10.50;8.75;;;;;17.45;36.13;100679.03;5095010;27;45390;-71
2022/05/31 00:35:33;;;;;;;;;13.50;7.75;;;;;17.39;36.46;100664.63;5095655;27;45555;-70
2022/05/31 00:38:00;;;;;;;;;8.00;8.00;;;;;17.36;36.03;100665.56;5095977;27;45456;-70
2022/05/31 00:40:30;;;;;;;;;10.00;6.33;;;;;17.49;36.23;100691.63;5098652;27;46561;-71
2022/05/31 00:42:59;;;;;;;;;10.25;7.75;;;;;17.47;36.38;100690.75;5115462;27;45241;-70
2022/05/31 00:45:46;;;;;;;;;4.67;4.33;;;;;17.45;36.41;100687.13;5115529;27;45244;-71
2022/05/31 00:48:23;;;;;;;;;4.00;4.00;;;;;17.43;36.35;100686.25;5115889;27;45292;-70
2022/05/31 00:51:04;;;;;;;;;3.67;3.00;;;;;17.32;36.52;100674.56;5114526;27;45502;-70
2022/05/31 00:53:37;;;;;;;;;3.33;3.33;;;;;17.24;36.51;100657.47;5115584;27;45370;-71
2022/05/31 00:56:11;;;;;;;;;7.67;3.00;;;;;17.38;36.86;100674.56;5100603;27;45529;-70
2022/05/31 00:58:46;;;;;;;;;4.00;2.33;;;;;17.41;36.86;100684.47;5096055;27;45470;-71
2022/05/31 01:01:16;;;;;;;;;4.00;3.00;;;;;17.38;36.73;100684.47;5106968;27;45534;-71
2022/05/31 01:03:43;;;;;;;;;3.67;3.67;;;;;17.35;36.63;100679.06;5114971;27;45511;-70
2022/05/31 01:06:12;;;;;;;;;4.00;3.00;;;;;17.37;36.85;100677.25;5115295;27;45546;-70
2022/05/31 01:08:44;;;;;;;;;4.00;2.00;;;;;17.38;36.81;100679.94;5102378;27;45497;-70
2022/05/31 01:11:11;;;;;;;;;5.00;3.67;;;;;17.38;36.99;100682.66;5095251;27;46163;-71
2022/05/31 01:13:36;;;;;;;;;4.00;4.00;;;;;17.21;36.40;100655.69;5095306;27;45470;-70
2022/05/31 01:16:08;;;;;;;;;1.67;1.00;;;;;17.39;36.49;100689.88;5095800;27;45773;-70
2022/05/31 01:18:34;;;;;;;;;3.00;1.67;;;;;17.16;36.55;100643.09;5095674;27;45332;-71
2022/05/31 01:21:01;;;;;;;;;2.67;2.00;;;;;17.36;36.45;100680.88;5093722;27;45558;-71
2022/05/31 01:23:34;;;;;;;;;4.00;2.00;;;;;17.18;36.27;100646.72;5114267;27;45654;-71
2022/05/31 01:26:11;;;;;;;;;3.00;1.00;;;;;17.33;36.27;100675.47;5115001;27;45346;-70
2022/05/31 01:29:10;;;;;;;;;2.00;2.00;;;;;17.17;36.72;100662.00;5115419;27;45466;-70
2022/05/31 01:32:11;;;;;;;;;1.00;1.00;;;;;17.16;37.01;100676.41;5108115;27;45433;-70
2022/05/31 01:35:04;;;;;;;;;3.00;3.00;;;;;17.22;36.50;100680.88;5087623;27;45733;-70
2022/05/31 01:37:40;;;;;;;;;9.00;2.00;;;;;17.21;36.88;100679.09;5094441;27;45321;-71
2022/05/31 01:40:12;;;;;;;;;3.00;2.00;;;;;16.83;37.11;100605.38;5109036;27;45530;-70
2022/05/31 01:42:42;;;;;;;;;4.00;4.00;;;;;17.25;36.44;100683.59;5114629;27;46208;-71
2022/05/31 01:45:10;;;;;;;;;2.00;2.00;;;;;17.26;37.01;100677.28;5107326;27;45412;-70
2022/05/31 01:47:36;;;;;;;;;4.00;2.33;;;;;17.24;37.52;100682.69;5094916;27;45411;-70
2022/05/31 01:50:05;;;;;;;;;3.00;2.33;;;;;16.71;37.85;100599.97;5095437;27;45403;-71
2022/05/31 01:52:32;;;;;;;;;3.00;3.00;;;;;17.24;37.78;100677.28;5094736;27;45468;-70
2022/05/31 01:54:58;;;;;;;;;2.00;2.00;;;;;17.17;37.98;100664.69;5094786;27;45374;-70
2022/05/31 01:57:24;;;;;;;;;3.00;3.00;;;;;17.25;37.43;100676.38;5094035;27;45425;-71
2022/05/31 01:59:57;;;;;;;;;2.67;2.67;;;;;17.25;37.55;100678.19;5095095;27;45404;-70
2022/05/31 02:02:22;;;;;;;;;4.33;2.67;;;;;17.24;38.12;100676.38;5095021;27;46152;-70
2022/05/31 02:04:48;;;;;;;;;2.00;2.00;;;;;17.19;38.04;100672.78;5098759;27;45492;-70
2022/05/31 02:07:16;;;;;;;;;6.33;3.00;;;;;17.25;38.28;100679.06;5099401;27;45355;-71
2022/05/31 02:09:43;;;;;;;;;3.00;3.00;;;;;17.22;38.24;100667.38;5099128;27;45351;-70
2022/05/31 02:12:11;;;;;;;;;2.67;2.67;;;;;17.30;38.26;100692.56;5098119;27;45397;-70
2022/05/31 02:14:37;;;;;;;;;5.00;3.33;;;;;17.22;37.92;100670.09;5098259;27;45548;-70
2022/05/31 02:17:03;;;;;;;;;3.00;3.00;;;;;17.30;37.43;100685.38;5098334;27;45441;-69
2022/05/31 02:19:30;;;;;;;;;2.33;2.33;;;;;17.23;37.64;100675.50;5098951;27;45439;-69
2022/05/31 02:21:58;;;;;;;;;2.00;1.00;;;;;17.30;37.54;100682.66;5099865;27;45339;-69
2022/05/31 02:24:25;;;;;;;;;4.67;3.00;;;;;17.37;37.88;100685.34;5097884;27;45294;-69
2022/05/31 02:26:50;;;;;;;;;3.00;2.00;;;;;17.34;37.86;100688.06;5097971;27;45534;-69
2022/05/31 02:29:20;;;;;;;;;3.33;3.00;;;;;17.31;38.07;100681.78;5098040;27;45538;-70
2022/05/31 02:31:47;;;;;;;;;3.00;3.00;;;;;17.18;38.31;100665.63;5098508;27;45910;-70
2022/05/31 02:34:15;;;;;;;;;4.00;4.00;;;;;17.32;38.22;100685.34;5098352;27;45366;-72
2022/05/31 02:36:41;;;;;;;;;2.00;2.00;;;;;17.26;38.70;100677.28;5098073;27;45640;-70
2022/05/31 02:39:07;;;;;;;;;2.67;2.67;;;;;17.32;38.54;100685.34;5098376;27;45459;-70
2022/05/31 02:41:32;;;;;;;;;4.67;4.00;;;;;17.33;38.46;100691.69;5097912;27;45361;-71
2022/05/31 02:43:58;;;;;;;;;3.00;2.00;;;;;17.09;38.75;100662.03;5097665;27;45578;-70
2022/05/31 02:46:24;;;;;;;;;4.67;4.00;;;;;17.30;38.68;100692.56;5098018;27;45450;-70
2022/05/31 02:48:50;;;;;;;;;1.67;1.67;;;;;17.31;38.46;100686.28;5097465;27;45341;-71
2022/05/31 02:51:16;;;;;;;;;3.67;2.33;;;;;17.19;38.53;100673.72;5097960;27;48233;-72
2022/05/31 02:53:41;;;;;;;;;3.00;3.00;;;;;17.25;39.13;100679.06;5097688;27;45275;-70
2022/05/31 02:56:07;;;;;;;;;3.33;2.67;;;;;17.24;38.56;100676.38;5098126;27;45428;-71
2022/05/31 02:58:33;;;;;;;;;3.00;3.00;;;;;17.22;38.62;100683.59;5093299;27;45500;-69
2022/05/31 03:00:59;;;;;;;;;4.00;3.00;;;;;17.19;38.86;100671.00;5097282;27;46192;-68
2022/05/31 03:03:24;;;;;;;;;4.00;2.00;;;;;17.19;38.46;100671.00;5106491;27;45539;-69
2022/05/31 03:05:51;;;;;;;;;4.00;3.00;;;;;17.19;38.70;100670.09;5098763;27;45484;-68
2022/05/31 03:08:16;;;;;;;;;5.00;4.00;;;;;16.97;38.92;100632.34;5117639;27;45437;-69
2022/05/31 03:10:45;;;;;;;;;4.00;4.00;;;;;17.17;38.75;100671.91;5116691;27;46054;-69
2022/05/31 03:13:20;;;;;;;;;5.00;3.00;;;;;16.89;39.55;100639.56;5097511;27;45587;-70
2022/05/31 03:15:47;;;;;;;;;4.00;3.00;;;;;17.03;38.94;100683.63;5097335;27;45276;-70
2022/05/31 03:18:21;;;;;;;;;2.00;2.00;;;;;17.01;39.20;100687.22;5097433;27;45385;-69
2022/05/31 03:20:54;;;;;;;;;3.33;2.33;;;;;17.05;39.78;100691.72;5096581;27;46172;-69
2022/05/31 03:23:23;;;;;;;;;3.67;2.33;;;;;17.03;39.53;100691.72;5097365;27;45630;-70
2022/05/31 03:25:50;;;;;;;;;3.33;2.67;;;;;16.99;39.20;100684.50;5097329;27;45247;-71
2022/05/31 03:28:17;;;;;;;;;4.00;2.67;;;;;16.95;39.17;100670.13;5097012;27;45414;-70
2022/05/31 03:30:43;;;;;;;;;2.33;1.67;;;;;16.94;39.91;100673.75;5096839;27;46785;-69
2022/05/31 03:33:10;;;;;;;;;2.00;2.00;;;;;16.98;39.52;100677.34;5096737;27;45325;-69
2022/05/31 03:35:37;;;;;;;;;3.00;2.33;;;;;16.59;39.84;100611.66;5097054;27;45464;-68
2022/05/31 03:38:03;;;;;;;;;3.00;3.00;;;;;16.75;39.29;100634.16;5106554;27;45598;-71
2022/05/31 03:43:12;;;;;;;;;3.67;3.67;;;;;16.96;39.64;100671.06;5117045;27;45511;-70
2022/05/31 03:45:40;;;;;;;;;2.00;2.00;;;;;16.42;39.52;100581.13;5117132;27;45480;-70
2022/05/31 03:48:06;;;;;;;;;5.67;3.00;;;;;16.92;39.79;100664.72;5117580;27;45349;-70
2022/05/31 03:50:33;;;;;;;;;4.00;3.00;;;;;16.98;39.95;100684.50;5116843;27;46045;-71
2022/05/31 03:52:58;;;;;;;;;2.00;2.00;;;;;16.91;39.61;100686.31;5099210;27;45471;-68
2022/05/31 03:55:24;;;;;;;;;5.00;3.00;;;;;16.75;39.66;100661.13;5096086;27;45393;-69
2022/05/31 03:57:51;;;;;;;;;1.00;1.00;;;;;16.85;39.91;100678.25;5096659;27;45216;-69
2022/05/31 04:00:17;;;;;;;;;4.67;4.00;;;;;16.45;39.86;100618.84;5096564;27;46456;-72
2022/05/31 04:02:42;;;;;;;;;2.00;2.00;;;;;16.68;40.26;100662.94;5096426;27;45459;-68
2022/05/31 04:05:08;;;;;;;;;3.00;3.00;;;;;16.80;39.77;100680.91;5096384;27;45354;-70
2022/05/31 04:07:34;;;;;;;;;2.67;2.67;;;;;16.72;40.30;100659.31;5100106;27;45345;-71
2022/05/31 04:10:01;;;;;;;;;4.00;4.00;;;;;16.69;40.27;100653.91;5095937;27;45527;-70
2022/05/31 04:12:26;;;;;;;;;6.00;3.67;;;;;16.65;39.94;100652.13;5095970;27;45397;-69
2022/05/31 04:14:53;;;;;;;;;3.67;1.67;;;;;16.75;39.80;100669.22;5095841;27;45318;-71
2022/05/31 04:17:18;;;;;;;;;3.33;3.33;;;;;16.62;39.81;100652.13;5096501;27;45369;-70
2022/05/31 04:19:43;;;;;;;;;3.33;3.00;;;;;16.66;40.55;100656.63;5096169;27;46565;-70
2022/05/31 04:22:09;;;;;;;;;2.50;2.50;;;;;16.27;40.09;100588.31;5101645;27;45414;-71
2022/05/31 04:24:35;;;;;;;;;6.33;4.67;;;;;16.59;40.14;100642.22;5096020;27;45407;-71
2022/05/31 04:27:01;;;;;;;;;32.50;27.00;;;;;16.70;40.22;100661.13;5080563;27;45560;-71
2022/05/31 04:29:26;;;;;;;;;25.75;21.25;;;;;16.76;40.20;100676.41;5108330;27;45291;-70
2022/05/31 04:31:51;;;;;;;;;18.00;17.75;;;;;16.76;40.73;100674.63;5096206;27;45372;-70
2022/05/31 04:34:17;;;;;;;;;9.50;8.00;;;;;16.57;40.84;100643.16;5096121;27;45357;-71
2022/05/31 04:36:42;;;;;;;;;4.00;4.00;;;;;16.56;40.34;100649.44;5096398;27;45358;-69
2022/05/31 04:39:08;;;;;;;;;4.00;3.00;;;;;16.53;40.60;100644.94;5095909;27;45372;-70
2022/05/31 04:41:34;;;;;;;;;4.00;4.00;;;;;16.77;40.80;100684.50;5095059;27;45408;-69
2022/05/31 04:44:01;;;;;;;;;8.00;7.00;;;;;16.77;40.82;100684.50;5095728;27;45507;-72
2022/05/31 04:46:29;;;;;;;;;3.00;3.00;;;;;16.74;40.42;100689.88;5077661;27;45315;-69
2022/05/31 04:48:56;;;;;;;;;2.33;0.67;;;;;16.42;40.33;100632.38;5095546;27;45610;-71
2022/05/31 04:51:22;;;;;;;;;3.00;3.00;;;;;16.30;40.42;100609.88;5095809;27;45343;-71
2022/05/31 04:53:48;;;;;;;;;3.33;3.33;;;;;16.75;39.88;100688.09;5095833;27;45446;-70
2022/05/31 04:56:19;;;;;;;;;3.00;3.00;;;;;16.63;40.36;100655.72;5105901;27;45609;-70
2022/05/31 04:58:47;;;;;;;;;2.67;1.33;;;;;16.82;39.62;100689.00;5115039;27;46153;-70
2022/05/31 05:01:13;;;;;;;;;2.67;2.67;;;;;16.71;40.41;100662.00;5115168;27;45402;-71
2022/05/31 05:03:40;;;;;;;;;2.33;2.33;;;;;16.82;39.97;100686.31;5110574;27;45319;-71
2022/05/31 05:06:07;;;;;;;;;3.00;1.33;;;;;16.74;39.91;100667.41;5112986;27;45498;-71
2022/05/31 05:08:36;;;;;;;;;4.67;3.67;;;;;16.85;40.34;100689.94;5114571;27;45599;-71
2022/05/31 05:11:03;;;;;;;;;1.33;1.33;;;;;16.73;40.37;100661.13;5103339;27;45461;-68
2022/05/31 05:13:31;;;;;;;;;4.67;2.67;;;;;16.78;39.88;100663.84;5095141;27;45354;-71
2022/05/31 05:15:57;;;;;;;;;1.67;1.67;;;;;16.91;39.55;100692.63;5095484;27;45417;-69
2022/05/31 05:18:23;;;;;;;;;2.00;2.00;;;;;16.86;39.63;100680.03;5100722;27;45554;-70
2022/05/31 05:20:48;;;;;;;;;4.00;2.33;;;;;17.01;40.16;100698.94;5094640;27;45350;-70
2022/05/31 05:23:14;;;;;;;;;2.33;2.33;;;;;17.01;39.79;100706.09;5095417;27;45333;-70
2022/05/31 05:25:40;;;;;;;;;3.00;3.00;;;;;16.83;40.03;100675.53;5095101;27;45279;-70
2022/05/31 05:30:51;;;;;;;;;3.33;1.67;;;;;16.80;39.79;100678.22;5095868;27;45601;-71
2022/05/31 05:33:18;;;;;;;;;4.33;4.33;;;;;16.93;39.48;100700.75;5108108;27;45614;-70
2022/05/31 05:35:43;;;;;;;;;19.25;18.25;;;;;16.94;39.57;100692.63;5115284;27;45447;-70
2022/05/31 05:38:09;;;;;;;;;3.00;3.00;;;;;17.09;39.58;100713.31;5120411;27;45418;-70
2022/05/31 05:40:35;;;;;;;;;4.00;4.00;;;;;17.00;39.99;100697.13;5119096;27;45573;-70
2022/05/31 05:43:00;;;;;;;;;3.00;3.00;;;;;16.87;40.01;100671.03;5105114;27;45491;-69
2022/05/31 05:45:26;;;;;;;;;8.33;4.67;;;;;16.67;40.00;100623.34;5101556;27;45386;-70
2022/05/31 05:47:52;;;;;;;;;3.67;3.67;;;;;17.19;39.20;100710.59;5101002;27;45480;-68
2022/05/31 05:50:17;;;;;;;;;1.67;1.67;;;;;17.17;39.48;100705.19;5118601;27;45529;-70
2022/05/31 05:52:49;;;;;;;;;5.00;5.00;;;;;17.25;39.40;100721.38;5121843;27;45611;-69
2022/05/31 05:55:14;;;;;;;;;9.00;6.33;;;;;17.28;39.26;100724.09;5121370;27;45346;-69
2022/05/31 05:57:39;;;;;;;;;6.00;4.00;;;;;17.09;39.68;100694.44;5104939;27;45475;-70
2022/05/31 06:00:06;;;;;;;;;20.25;17.75;;;;;17.30;39.27;100723.16;5089128;27;51363;-68
2022/05/31 06:02:35;;;;;;;;;7.67;7.33;;;;;17.19;39.18;100702.50;5100321;27;45515;-68
2022/05/31 06:05:24;;;;;;;;;10.33;6.33;;;;;17.40;39.15;100733.97;5106105;27;45535;-69
2022/05/31 06:07:55;;;;;;;;;4.00;4.00;;;;;17.23;38.82;100696.19;5107321;27;46295;-69
2022/05/31 06:10:26;;;;;;;;;4.67;3.00;;;;;17.45;39.05;100732.16;5100965;27;45429;-68
2022/05/31 06:13:00;;;;;;;;;5.67;4.00;;;;;17.49;38.77;100733.97;5100275;27;45570;-69
2022/05/31 06:15:30;;;;;;;;;20.00;17.50;;;;;17.44;38.71;100728.56;5100939;27;45544;-70
2022/05/31 06:18:00;;;;;;;;;7.33;5.00;;;;;17.11;38.98;100668.31;5107097;27;45384;-70
2022/05/31 06:20:29;;;;;;;;;8.00;4.33;;;;;17.09;38.71;100661.09;5126662;27;45326;-69
2022/05/31 06:22:56;;;;;;;;;3.33;3.33;;;;;17.56;38.58;100735.72;5106139;27;45522;-70
2022/05/31 06:25:21;;;;;;;;;3.00;3.00;;;;;17.57;39.04;100734.84;5114526;27;45282;-70
2022/05/31 06:27:47;;;;;;;;;7.00;7.00;;;;;17.57;39.28;100740.25;5100644;27;47408;-70
2022/05/31 06:30:13;;;;;;;;;6.00;6.00;;;;;17.56;38.78;100726.75;5117456;27;45539;-70
2022/05/31 06:32:39;;;;;;;;;4.00;4.00;;;;;17.55;38.72;100728.50;5120664;27;45607;-70
2022/05/31 06:35:05;;;;;;;;;5.00;3.00;;;;;17.60;38.97;100732.09;5121023;27;45437;-70
2022/05/31 06:37:30;;;;;;;;;10.25;10.25;;;;;17.45;39.13;100688.94;5120274;27;45616;-70
2022/05/31 06:39:56;;;;;;;;;8.67;7.67;;;;;17.65;38.60;100724.00;5120192;27;45369;-70
2022/05/31 06:42:22;;;;;;;;;4.67;3.67;;;;;17.73;38.67;100729.38;5120418;27;45312;-68
2022/05/31 06:44:47;;;;;;;;;7.67;6.33;;;;;17.83;38.46;100744.66;5120456;27;45507;-70
2022/05/31 06:47:12;;;;;;;;;7.33;6.33;;;;;17.84;38.33;100724.84;5120605;27;46221;-70
2022/05/31 06:49:39;;;;;;;;;4.67;4.00;;;;;18.00;38.41;100736.50;5116754;27;45467;-70
2022/05/31 06:57:38;;;;;;;;;5.33;5.33;;;;;17.98;38.20;100704.09;5116261;27;45697;-70
2022/05/31 07:00:08;;;;;;;;;9.33;6.67;;;;;18.20;37.96;100717.50;5116786;27;45634;-69
2022/05/31 07:02:34;;;;;;;;;10.67;6.00;;;;;18.37;38.07;100739.03;5117104;27;45579;-70
2022/05/31 07:04:59;;;;;;;;;6.00;5.00;;;;;18.33;38.16;100729.13;5116943;27;45501;-70
2022/05/31 07:07:25;;;;;;;;;5.00;5.00;;;;;18.39;37.87;100731.78;5116529;27;46533;-69
2022/05/31 07:09:51;;;;;;;;;9.33;6.00;;;;;18.38;38.30;100733.63;5116424;27;45346;-69
2022/05/31 07:12:16;;;;;;;;;8.00;8.00;;;;;18.32;38.58;100730.06;5116994;27;45521;-70
2022/05/31 07:14:42;;;;;;;;;7.00;5.67;;;;;18.17;38.76;100704.88;5117217;27;45437;-69
2022/05/31 07:17:08;;;;;;;;;9.33;6.67;;;;;18.25;38.69;100715.66;5104158;27;45876;-70
2022/05/31 07:19:34;;;;;;;;;5.67;5.67;;;;;18.42;38.72;100742.59;5097597;27;45321;-70
2022/05/31 07:22:00;;;;;;;;;22.50;17.75;;;;;17.80;38.57;100656.41;5097231;27;45256;-70
2022/05/31 07:24:26;;;;;;;;;14.00;14.00;;;;;18.43;38.62;100741.72;5096761;27;45512;-69
2022/05/31 07:26:52;;;;;;;;;9.33;7.33;;;;;18.35;38.23;100733.63;5096250;27;45439;-70
2022/05/31 07:29:18;;;;;;;;;5.33;5.33;;;;;18.36;38.68;100753.44;5095935;27;45374;-70
2022/05/31 07:31:44;;;;;;;;;6.00;6.00;;;;;18.35;38.68;100746.25;5096685;27;45558;-69
2022/05/31 07:34:11;;;;;;;;;12.67;11.00;;;;;18.35;39.19;100748.97;5096770;27;45385;-69
2022/05/31 07:36:38;;;;;;;;;8.33;8.33;;;;;18.35;39.10;100751.69;5095803;27;46271;-69
2022/05/31 07:39:05;;;;;;;;;11.33;8.33;;;;;18.38;38.66;100752.56;5098492;27;45412;-69
2022/05/31 07:41:32;;;;;;;;;8.33;5.00;;;;;18.29;38.43;100725.53;5096241;27;45437;-70
2022/05/31 07:43:58;;;;;;;;;5.33;4.67;;;;;18.37;38.12;100730.91;5096574;27;45476;-70
2022/05/31 07:46:24;;;;;;;;;6.00;5.67;;;;;18.60;38.03;100753.31;5096048;27;46091;-70
2022/05/31 07:48:49;;;;;;;;;3.67;3.33;;;;;18.63;38.08;100743.34;5096126;27;45375;-70
2022/05/31 07:51:14;;;;;;;;;6.00;5.67;;;;;18.74;37.89;100747.81;5096039;27;45600;-70
2022/05/31 07:53:40;;;;;;;;;5.00;5.00;;;;;18.76;37.27;100748.69;5096318;27;45502;-70
2022/05/31 07:56:07;;;;;;;;;8.67;7.33;;;;;18.86;37.01;100752.25;5095877;27;49408;-70
2022/05/31 07:58:33;;;;;;;;;9.67;5.00;;;;;18.84;36.95;100739.63;5095995;27;45382;-69
2022/05/31 08:01:13;;;;;;;;;8.00;5.67;;;;;18.79;36.99;100729.72;5094913;27;45306;-69
2022/05/31 08:03:39;;;;;;;;;5.33;5.00;;;;;18.60;36.73;100680.25;5096136;27;45353;-69
2022/05/31 08:06:08;;;;;;;;;7.33;4.00;;;;;19.09;36.52;100751.16;5095619;27;46485;-70
2022/05/31 08:08:35;;;;;;;;;4.00;4.00;;;;;19.10;36.55;100767.38;5096569;27;45628;-69
2022/05/31 08:11:05;;;;;;;;;7.00;5.67;;;;;19.03;36.75;100757.53;5096084;27;45324;-70
2022/05/31 08:13:31;;;;;;;;;4.33;4.00;;;;;18.96;36.62;100756.69;5096647;27;45365;-70
2022/05/31 08:15:58;;;;;;;;;7.33;5.00;;;;;18.96;36.84;100747.69;5095941;27;46113;-70
2022/05/31 08:18:23;;;;;;;;;12.00;11.67;;;;;19.04;36.94;100742.19;5096021;27;45404;-69
2022/05/31 08:20:48;;;;;;;;;6.67;6.00;;;;;19.20;36.59;100753.78;5095535;27;48344;-69
2022/05/31 08:23:14;;;;;;;;;7.00;4.00;;;;;19.19;36.14;100743.84;5095962;27;45286;-70
2022/05/31 08:25:39;;;;;;;;;6.00;5.33;;;;;19.25;36.06;100750.09;5095800;27;45472;-69
2022/05/31 08:28:05;;;;;;;;;8.67;8.33;;;;;19.27;35.91;100741.97;5077295;27;45390;-69
2022/05/31 08:30:31;;;;;;;;;6.00;3.00;;;;;19.23;35.13;100721.25;5095497;27;46369;-69
2022/05/31 08:32:56;;;;;;;;;3.33;3.33;;;;;19.41;34.57;100736.44;5094887;27;45359;-70
2022/05/31 08:35:22;;;;;;;;;6.00;6.00;;;;;19.56;34.93;100754.34;5094796;27;46510;-70
2022/05/31 08:37:47;;;;;;;;;5.00;3.33;;;;;19.67;34.12;100742.47;5093220;27;45687;-70
2022/05/31 08:40:13;;;;;;;;;9.67;4.33;;;;;19.82;34.29;100740.53;5095608;27;45349;-69
2022/05/31 08:42:49;;;;;;;;;5.67;4.00;;;;;19.89;33.84;100739.53;5084029;27;45491;-69
2022/05/31 08:45:40;;;;;;;;;5.00;5.00;;;;;19.87;33.16;100733.22;5109537;27;45551;-70
2022/05/31 08:48:30;;;;;;;;;4.33;4.33;;;;;20.02;33.62;100743.00;5115739;27;45538;-70
2022/05/31 08:56:56;;;;;;;;;3.67;3.00;;;;;20.35;32.33;100736.22;5114725;27;45401;-68
2022/05/31 08:59:42;;;;;;;;;5.67;5.00;;;;;20.51;32.33;100744.13;5114983;27;45425;-69
2022/05/31 09:02:16;;;;;;;;;3.00;3.00;;;;;20.53;31.77;100721.47;5114642;27;45447;-69
2022/05/31 09:04:45;;;;;;;;;4.00;2.67;;;;;20.71;31.13;100743.88;5115437;27;45409;-69
2022/05/31 09:07:40;;;;;;;;;3.00;3.00;;;;;20.74;31.30;100738.38;5114605;27;45405;-69
2022/05/31 09:10:44;;;;;;;;;5.33;4.00;;;;;20.95;31.78;100745.28;5113265;27;45420;-69
2022/05/31 09:13:16;;;;;;;;;2.00;2.00;;;;;21.15;31.32;100737.72;5114291;27;45637;-69
2022/05/31 09:15:47;;;;;;;;;3.00;3.00;;;;;21.24;30.71;100743.91;5115256;27;45550;-68
2022/05/31 09:18:16;;;;;;;;;2.00;2.00;;;;;21.29;30.83;100742.88;5114512;27;45461;-69
2022/05/31 09:20:46;;;;;;;;;2.00;2.00;;;;;21.38;30.73;100740.91;5114731;27;45403;-69
2022/05/31 09:23:20;;;;;;;;;7.67;4.00;;;;;21.47;30.42;100738.03;5114667;27;45463;-69
2022/05/31 09:25:49;;;;;;;;;5.00;3.00;;;;;21.49;30.05;100747.09;5114811;27;45532;-69
2022/05/31 09:28:23;;;;;;;;;2.00;2.00;;;;;21.48;29.69;100743.50;5114160;27;46159;-70
2022/05/31 09:30:49;;;;;;;;;3.67;3.67;;;;;20.99;29.71;100666.44;5114804;27;45680;-69
2022/05/31 09:33:33;;;;;;;;;2.00;2.00;;;;;21.48;30.39;100740.78;5114359;27;45391;-70
2022/05/31 09:36:24;;;;;;;;;4.67;3.00;;;;;21.28;30.09;100716.66;5115189;27;45471;-69
2022/05/31 09:39:43;;;;;;;;;3.33;2.00;;;;;21.47;28.77;100738.97;5114045;27;46406;-68
2022/05/31 09:42:24;;;;;;;;;2.00;2.00;;;;;21.42;28.76;100729.09;5049845;28;45419;-69
2022/05/31 09:45:11;;;;;;;;;3.00;3.00;;;;;21.48;29.07;100735.34;5050172;28;45467;-69
2022/05/31 09:47:36;;;;;;;;;3.00;1.33;;;;;21.71;28.65;100739.41;5096050;27;45392;-68
2022/05/31 09:50:02;;;;;;;;;5.67;3.67;;;;;21.88;29.19;100739.09;5113800;27;46205;-70
2022/05/31 09:52:47;;;;;;;;;3.00;1.67;;;;;22.01;28.42;100735.19;5113995;27;45368;-69
2022/05/31 09:58:20;;;;;;;;;2.33;2.33;;;;;21.99;28.28;100734.31;5114386;27;45573;-70
2022/05/31 10:01:04;;;;;;;;;3.67;3.00;;;;;21.93;28.52;100736.25;5094837;27;46819;-70
2022/05/31 10:03:44;;;;;;;;;4.00;4.00;;;;;21.87;28.63;100735.44;5113885;27;45556;-70
2022/05/31 10:06:26;;;;;;;;;11.33;10.33;;;;;21.65;28.53;100705.09;5114368;27;45568;-69
2022/05/31 10:08:54;;;;;;;;;5.00;3.00;;;;;21.62;29.04;100734.16;5114150;27;46300;-69
2022/05/31 10:11:30;;;;;;;;;3.00;2.33;;;;;21.43;29.77;100737.22;5113280;27;46223;-69
2022/05/31 10:13:55;;;;;;;;;5.00;5.00;;;;;21.34;29.96;100738.25;5113854;27;45313;-70
2022/05/31 10:16:26;;;;;;;;;7.33;6.33;;;;;21.21;30.36;100730.38;5113467;27;45598;-69
2022/05/31 10:18:57;;;;;;;;;5.33;3.67;;;;;21.17;29.45;100729.53;5107887;27;45356;-69
2022/05/31 10:21:40;;;;;;;;;3.33;3.00;;;;;20.97;30.17;100716.31;5113189;27;46326;-69
2022/05/31 10:24:15;;;;;;;;;3.00;3.00;;;;;21.17;30.08;100735.84;5114867;27;45333;-69
2022/05/31 10:26:42;;;;;;;;;4.33;4.33;;;;;21.23;29.45;100720.34;5098828;27;45430;-71
2022/05/31 10:29:15;;;;;;;;;5.33;5.00;;;;;21.35;28.12;100728.31;5117412;27;45438;-70
2022/05/31 10:31:45;;;;;;;;;4.67;4.67;;;;;21.49;28.51;100730.78;5116896;27;46156;-69
2022/05/31 10:34:38;;;;;;;;;13.67;10.67;;;;;21.63;28.57;100733.22;5117090;27;45438;-70
2022/05/31 10:37:07;;;;;;;;;1.33;1.33;;;;;21.72;26.98;100733.94;5117015;27;45451;-70
2022/05/31 10:39:36;;;;;;;;;3.00;3.00;;;;;21.71;26.27;100723.09;5117724;27;45522;-69
2022/05/31 10:42:07;;;;;;;;;2.00;2.00;;;;;21.77;25.70;100725.69;5116966;27;45535;-69
2022/05/31 10:44:42;;;;;;;;;1.00;1.00;;;;;21.54;26.26;100694.41;5117853;27;45593;-69
2022/05/31 10:47:12;;;;;;;;;1.67;1.33;;;;;21.66;26.67;100719.56;5117195;27;45390;-69
2022/05/31 10:49:39;;;;;;;;;2.67;2.67;;;;;21.73;26.84;100737.56;5117214;27;45359;-69
2022/05/31 10:52:38;;;;;;;;;3.67;3.67;;;;;21.72;26.68;100735.78;5117032;27;46202;-69
2022/05/31 10:55:12;;;;;;;;;7.00;7.00;;;;;21.68;27.34;100728.63;5117945;27;45510;-68
2022/05/31 10:57:56;;;;;;;;;3.00;2.00;;;;;21.64;27.03;100730.47;5116955;27;45654;-68
2022/05/31 11:00:43;;;;;;;;;3.00;2.00;;;;;21.62;26.37;100732.34;5116964;27;45382;-69
2022/05/31 11:03:18;;;;;;;;;2.00;1.33;;;;;21.38;27.28;100702.88;5116790;27;45277;-70
2022/05/31 11:06:11;;;;;;;;;7.33;7.33;;;;;21.05;27.69;100657.31;5085434;27;45543;-70
2022/05/31 11:11:37;;;;;;;;;5.00;4.00;;;;;21.56;27.68;100737.88;5097281;27;45437;-70
2022/05/31 11:14:27;;;;;;;;;2.33;2.33;;;;;21.46;27.65;100742.56;5110475;27;45338;-69
2022/05/31 11:17:29;;;;;;;;;2.33;2.33;;;;;21.42;27.75;100739.97;5097258;27;45532;-68
2022/05/31 11:19:54;;;;;;;;;3.33;3.33;;;;;21.43;28.33;100739.00;5116498;27;45482;-71
2022/05/31 11:22:45;;;;;;;;;3.00;3.00;;;;;21.32;28.34;100726.53;5116552;27;45496;-69
2022/05/31 11:25:57;;;;;;;;;3.00;3.00;;;;;21.22;28.61;100730.34;5116387;27;46118;-69
2022/05/31 11:28:43;;;;;;;;;1.67;1.67;;;;;21.30;28.54;100743.78;5013012;28;45517;-68
2022/05/31 11:31:43;;;;;;;;;3.00;3.00;;;;;21.40;28.46;100736.34;5012859;28;45595;-70
2022/05/31 11:34:31;;;;;;;;;3.00;2.67;;;;;21.43;28.35;100733.56;5102349;27;45566;-68
2022/05/31 11:37:15;;;;;;;;;2.67;2.67;;;;;21.53;28.52;100732.50;5115647;27;47319;-69
2022/05/31 11:39:53;;;;;;;;;3.00;3.00;;;;;21.42;28.43;100691.03;5116095;27;45358;-69
2022/05/31 11:42:44;;;;;;;;;4.00;2.67;;;;;21.85;27.16;100748.19;5116149;27;45499;-69
2022/05/31 11:45:51;;;;;;;;;2.33;1.00;;;;;21.96;27.04;100747.06;5116987;27;45606;-69
2022/05/31 11:48:30;;;;;;;;;5.00;5.00;;;;;21.97;27.26;100730.72;5115310;27;46208;-70
2022/05/31 11:51:44;;;;;;;;;4.00;3.00;;;;;22.04;27.88;100745.09;5103167;27;45706;-69
2022/05/31 11:54:27;;;;;;;;;3.67;2.33;;;;;22.03;28.15;100740.59;5088077;27;45364;-69
2022/05/31 11:57:14;;;;;;;;;3.00;2.00;;;;;22.01;28.32;100740.63;5110454;27;45533;-68
2022/05/31 12:00:06;;;;;;;;;2.00;1.67;;;;;21.85;28.46;100711.94;5115590;27;45388;-69
2022/05/31 12:03:03;;;;;;;;;4.67;3.00;;;;;22.08;28.33;100745.00;5077029;27;45789;-69
2022/05/31 12:05:37;;;;;;;;;3.00;2.00;;;;;22.11;27.17;100743.13;5115366;27;45400;-69